Time;durP1;ratioP1;P1;durP2;ratioP2;P2;SDS_P1;SDS_P2;PMS_P1;PMS_P2;Temp;Humidity;BMP_temperature;BMP_pressure;BME280_temperature;BME280_humidity;BME280_pressure;Samples;Min_cycle;Max_cycle;Signal;HPM_P1;HPM_P2
2022/11/02 00:00:29;;;;;;;9.45;5.47;;;18.70;99.90;;;;;;5059263;28;20045;-73
2022/11/02 00:02:57;;;;;;;12.98;7.72;;;18.70;99.90;;;;;;5070182;28;20044;-75
2022/11/02 00:05:25;;;;;;;9.40;6.15;;;18.70;99.90;;;;;;5070112;28;20032;-73
2022/11/02 00:07:54;;;;;;;9.85;6.38;;;18.70;99.90;;;;;;5058767;28;20614;-73
2022/11/02 00:10:23;;;;;;;9.30;6.72;;;18.70;99.90;;;;;;5059700;28;20167;-73
2022/11/02 00:12:51;;;;;;;10.40;5.38;;;18.70;99.90;;;;;;5057845;28;20130;-79
2022/11/02 00:15:18;;;;;;;10.10;6.22;;;18.70;99.90;;;;;;5059863;28;20527;-73
2022/11/02 00:17:49;;;;;;;9.52;6.07;;;18.70;99.90;;;;;;5076653;28;20044;-74
2022/11/02 00:20:19;;;;;;;12.48;6.80;;;18.70;99.90;;;;;;5038892;28;20082;-73
2022/11/02 00:22:50;;;;;;;8.57;5.35;;;18.70;99.90;;;;;;5062771;28;20054;-74
2022/11/02 00:25:20;;;;;;;7.88;5.28;;;18.70;99.90;;;;;;5066269;28;20495;-74
2022/11/02 00:27:48;;;;;;;6.90;4.93;;;18.60;99.90;;;;;;5078068;28;20111;-78
2022/11/02 00:30:16;;;;;;;7.25;4.60;;;18.60;99.90;;;;;;5081844;28;20044;-75
2022/11/02 00:32:43;;;;;;;7.43;4.78;;;18.60;99.90;;;;;;5074700;28;20414;-74
2022/11/02 00:35:11;;;;;;;7.05;4.57;;;18.60;99.90;;;;;;5074136;28;20396;-75
2022/11/02 00:37:39;;;;;;;7.15;4.40;;;18.50;99.90;;;;;;5047817;28;20121;-73
2022/11/02 00:40:06;;;;;;;6.97;4.90;;;18.50;99.90;;;;;;5059497;28;20117;-74
2022/11/02 00:42:34;;;;;;;8.23;4.43;;;18.40;99.90;;;;;;5061278;28;20147;-73
2022/11/02 00:45:02;;;;;;;5.28;3.67;;;18.40;99.90;;;;;;5041067;28;20043;-73
2022/11/02 00:47:30;;;;;;;8.45;4.60;;;18.30;99.90;;;;;;5067331;28;20751;-75
2022/11/02 00:49:57;;;;;;;7.03;3.78;;;18.30;99.90;;;;;;5042496;28;20053;-72
2022/11/02 00:52:26;;;;;;;6.60;4.47;;;18.40;99.90;;;;;;5077138;28;20170;-73
2022/11/02 00:54:53;;;;;;;4.18;2.70;;;18.30;99.90;;;;;;5075362;28;20222;-72
2022/11/02 00:57:21;;;;;;;5.43;3.33;;;18.40;99.90;;;;;;5060609;28;20040;-76
2022/11/02 00:59:49;;;;;;;5.03;2.95;;;18.30;99.90;;;;;;5067055;28;20552;-76
2022/11/02 01:02:17;;;;;;;4.32;2.30;;;18.30;99.90;;;;;;5072531;28;20058;-72
2022/11/02 01:04:44;;;;;;;4.53;2.47;;;18.40;99.90;;;;;;5072280;28;20150;-75
2022/11/02 01:07:12;;;;;;;3.25;2.20;;;18.40;99.90;;;;;;5079680;28;20132;-73
2022/11/02 01:09:39;;;;;;;2.75;1.90;;;18.30;99.90;;;;;;5075808;28;20139;-73
2022/11/02 01:12:07;;;;;;;3.15;1.90;;;18.30;99.90;;;;;;5061591;28;20040;-73
2022/11/02 01:14:35;;;;;;;3.40;2.00;;;18.40;99.90;;;;;;5077994;28;20139;-73
2022/11/02 01:17:03;;;;;;;5.03;2.05;;;18.40;99.90;;;;;;5063363;28;20044;-73
2022/11/02 01:19:31;;;;;;;3.03;2.10;;;18.30;99.90;;;;;;5037999;28;20159;-73
2022/11/02 01:21:58;;;;;;;2.58;2.00;;;18.40;99.90;;;;;;5065786;28;20039;-74
2022/11/02 01:24:26;;;;;;;2.95;1.95;;;18.40;99.90;;;;;;5057057;28;20691;-72
2022/11/02 01:26:53;;;;;;;3.25;2.00;;;18.40;99.90;;;;;;5076421;28;20150;-73
2022/11/02 01:29:21;;;;;;;2.67;1.75;;;18.40;99.90;;;;;;5074416;28;20154;-73
2022/11/02 01:31:49;;;;;;;3.25;1.70;;;18.40;99.90;;;;;;5061643;28;20052;-73
2022/11/02 01:34:16;;;;;;;2.80;2.13;;;18.40;99.90;;;;;;5058918;28;20126;-75
2022/11/02 01:36:45;;;;;;;3.08;2.05;;;18.40;99.90;;;;;;5045735;28;20052;-74
2022/11/02 01:39:14;;;;;;;2.22;1.75;;;18.30;99.90;;;;;;5061702;28;20055;-73
2022/11/02 01:41:42;;;;;;;3.20;1.77;;;18.30;99.90;;;;;;5070209;28;20044;-73
2022/11/02 01:44:28;;;;;;;2.60;1.67;;;18.40;99.90;;;;;;5054982;28;20447;-72
2022/11/02 01:47:19;;;;;;;2.73;1.80;;;18.40;99.90;;;;;;5037237;28;20070;-74
2022/11/02 01:49:50;;;;;;;2.75;1.90;;;18.40;99.90;;;;;;5047086;28;20080;-78
2022/11/02 01:52:38;;;;;;;2.22;1.40;;;18.40;99.90;;;;;;5068599;28;20048;-74
2022/11/02 01:55:11;;;;;;;2.00;1.40;;;18.40;99.90;;;;;;5060646;28;20067;-73
2022/11/02 01:57:43;;;;;;;2.72;1.65;;;18.40;99.90;;;;;;5042074;28;20132;-73
2022/11/02 02:00:14;;;;;;;2.10;1.48;;;18.30;99.90;;;;;;5063194;28;20045;-74
2022/11/02 02:02:52;;;;;;;3.08;1.50;;;18.30;99.90;;;;;;5066928;28;20120;-73
2022/11/02 02:05:22;;;;;;;1.83;1.42;;;18.30;99.90;;;;;;5072586;28;20148;-73
2022/11/02 02:07:51;;;;;;;2.90;1.50;;;18.30;99.90;;;;;;5081336;28;20145;-73
2022/11/02 02:10:18;;;;;;;3.30;1.50;;;18.20;99.90;;;;;;5073935;28;20375;-73
2022/11/02 02:12:46;;;;;;;1.65;1.40;;;18.20;99.90;;;;;;5079397;28;20047;-73
2022/11/02 02:15:22;;;;;;;2.90;1.83;;;18.20;99.90;;;;;;5067829;28;20033;-75
2022/11/02 02:18:11;;;;;;;2.47;1.83;;;18.20;99.90;;;;;;5076935;28;20040;-74
2022/11/02 02:21:19;;;;;;;2.30;1.38;;;18.20;99.90;;;;;;5042068;28;20052;-73
2022/11/02 02:23:56;;;;;;;2.42;1.73;;;18.10;99.90;;;;;;5032348;28;20410;-76
2022/11/02 02:26:40;;;;;;;2.20;1.58;;;18.10;99.90;;;;;;5056154;28;20042;-73
2022/11/02 02:29:20;;;;;;;2.40;1.80;;;18.10;99.90;;;;;;5070403;28;20560;-72
2022/11/02 02:32:20;;;;;;;1.92;1.38;;;18.10;99.90;;;;;;5027119;28;20515;-74
2022/11/02 02:34:56;;;;;;;2.28;1.63;;;18.00;99.90;;;;;;5038679;28;20061;-73
2022/11/02 02:37:39;;;;;;;2.22;1.40;;;18.10;99.90;;;;;;5076562;28;20060;-76
2022/11/02 02:40:15;;;;;;;2.30;1.67;;;18.00;99.90;;;;;;5042450;28;20032;-73
2022/11/02 02:43:07;;;;;;;2.27;1.77;;;18.00;99.90;;;;;;5066094;28;20064;-74
2022/11/02 02:45:40;;;;;;;1.92;1.58;;;18.00;99.90;;;;;;5062102;28;20305;-74
2022/11/02 02:48:16;;;;;;;2.00;1.70;;;17.90;99.90;;;;;;5078787;28;20040;-73
2022/11/02 02:50:52;;;;;;;2.42;1.75;;;17.90;99.90;;;;;;5057333;28;20498;-74
2022/11/02 02:53:29;;;;;;;2.50;1.70;;;17.90;99.90;;;;;;5048892;28;20053;-73
2022/11/02 02:55:59;;;;;;;2.40;1.50;;;17.90;99.90;;;;;;5052977;28;20082;-74
2022/11/02 02:58:32;;;;;;;2.50;1.80;;;17.90;99.90;;;;;;5053035;28;20063;-73
2022/11/02 03:01:02;;;;;;;4.15;2.00;;;17.80;99.90;;;;;;5068550;28;20040;-72
2022/11/02 03:03:33;;;;;;;2.42;1.60;;;17.90;99.90;;;;;;5042760;28;20055;-73
2022/11/02 03:06:19;;;;;;;3.10;1.45;;;17.80;99.90;;;;;;5073832;28;20050;-73
2022/11/02 03:09:02;;;;;;;1.80;1.40;;;17.80;99.90;;;;;;5054325;28;20075;-73
2022/11/02 03:11:32;;;;;;;2.58;1.70;;;17.80;99.90;;;;;;5057555;28;20056;-76
2022/11/02 03:14:17;;;;;;;2.55;1.80;;;17.80;99.90;;;;;;5052153;28;20064;-76
2022/11/02 03:17:03;;;;;;;2.60;1.80;;;17.80;99.90;;;;;;5082138;28;20044;-73
2022/11/02 03:19:48;;;;;;;4.20;1.77;;;17.70;99.90;;;;;;5089357;28;20048;-73
2022/11/02 03:22:32;;;;;;;4.30;1.70;;;17.70;99.90;;;;;;5088834;28;20044;-73
2022/11/02 03:25:20;;;;;;;2.28;1.70;;;17.70;99.90;;;;;;5031832;28;20558;-75
2022/11/02 03:28:01;;;;;;;3.40;2.00;;;17.70;99.90;;;;;;5068403;28;20048;-74
2022/11/02 03:30:37;;;;;;;6.28;2.67;;;17.60;99.90;;;;;;5068055;28;20158;-75
2022/11/02 03:33:33;;;;;;;4.63;2.30;;;17.60;99.90;;;;;;5052644;28;20048;-75
2022/11/02 03:36:05;;;;;;;4.97;2.80;;;17.60;99.90;;;;;;5052232;28;20048;-75
2022/11/02 03:38:59;;;;;;;5.50;2.58;;;17.60;99.90;;;;;;5052617;28;20456;-76
2022/11/02 03:41:28;;;;;;;3.08;2.15;;;17.60;99.90;;;;;;5052435;28;20049;-73
2022/11/02 03:44:02;;;;;;;3.42;2.20;;;17.60;99.90;;;;;;5052149;28;20052;-74
2022/11/02 03:46:33;;;;;;;3.05;2.35;;;17.60;99.90;;;;;;5052031;28;20455;-73
2022/11/02 03:49:04;;;;;;;4.47;2.47;;;17.60;99.90;;;;;;5051907;28;20041;-74
2022/11/02 03:51:36;;;;;;;4.93;2.25;;;17.60;99.90;;;;;;5035403;28;20102;-74
2022/11/02 03:54:17;;;;;;;2.65;1.80;;;17.60;99.90;;;;;;5052153;28;20049;-73
2022/11/02 03:56:52;;;;;;;2.30;1.60;;;17.60;99.90;;;;;;5052211;28;20056;-75
2022/11/02 03:59:20;;;;;;;2.78;1.67;;;17.60;99.90;;;;;;5035309;28;20542;-73
2022/11/02 04:01:51;;;;;;;3.22;1.95;;;17.50;99.90;;;;;;5056724;28;20069;-74
2022/11/02 04:04:20;;;;;;;3.67;2.30;;;17.50;99.90;;;;;;5029055;28;20059;-74
2022/11/02 04:06:50;;;;;;;3.92;2.45;;;17.40;99.90;;;;;;5032522;28;20049;-74
2022/11/02 04:09:18;;;;;;;6.25;2.50;;;17.40;99.90;;;;;;5048615;28;20103;-73
2022/11/02 04:14:38;;;;;;;4.35;2.95;;;17.30;99.90;;;;;;5048521;28;20072;-75
2022/11/02 04:20:08;;;;;;;5.43;3.50;;;17.20;99.90;;;;;;5031434;28;20681;-74
2022/11/02 04:25:24;;;;;;;6.05;3.30;;;17.00;99.90;;;;;;5031257;28;20053;-74
2022/11/02 04:28:12;;;;;;;13.05;4.85;;;17.00;99.90;;;;;;5048999;28;20044;-74
2022/11/02 04:30:47;;;;;;;8.40;4.15;;;16.80;99.90;;;;;;5047963;28;20143;-74
2022/11/02 04:33:33;;;;;;;9.02;4.93;;;16.80;99.90;;;;;;5031145;28;20048;-74
2022/11/02 04:36:07;;;;;;;8.60;5.03;;;16.80;99.90;;;;;;5063379;28;20047;-74
2022/11/02 04:38:40;;;;;;;11.00;5.85;;;16.70;99.90;;;;;;5048247;28;20055;-74
2022/11/02 04:41:42;;;;;;;12.50;6.30;;;16.70;99.90;;;;;;5047944;28;20041;-74
2022/11/02 04:44:32;;;;;;;13.90;6.60;;;16.70;99.90;;;;;;5034526;28;20107;-74
2022/11/02 04:47:04;;;;;;;11.30;6.82;;;16.70;99.90;;;;;;5030800;28;20053;-74
2022/11/02 04:49:33;;;;;;;13.80;7.40;;;16.60;99.90;;;;;;5031307;28;20060;-75
2022/11/02 04:52:03;;;;;;;13.45;7.63;;;16.60;99.90;;;;;;5031385;28;20088;-75
2022/11/02 04:54:33;;;;;;;13.05;7.35;;;16.60;99.90;;;;;;5031117;28;20570;-74
2022/11/02 04:57:03;;;;;;;15.52;8.02;;;16.60;99.90;;;;;;5031143;28;20078;-73
2022/11/02 04:59:32;;;;;;;12.95;8.27;;;16.60;99.90;;;;;;5047867;28;20055;-74
2022/11/02 05:01:59;;;;;;;13.40;7.63;;;16.60;99.90;;;;;;5030899;28;20060;-73
2022/11/02 05:04:28;;;;;;;13.13;6.43;;;16.60;99.90;;;;;;5031013;28;20068;-74
2022/11/02 05:06:56;;;;;;;10.75;6.80;;;16.60;99.90;;;;;;5030653;28;20040;-79
2022/11/02 05:09:27;;;;;;;9.05;6.40;;;16.60;99.90;;;;;;5047594;28;20045;-75
2022/11/02 05:11:55;;;;;;;15.43;7.82;;;16.60;99.90;;;;;;5064314;28;20146;-75
2022/11/02 05:14:22;;;;;;;16.45;6.95;;;16.70;99.90;;;;;;5031378;28;20090;-74
2022/11/02 05:16:50;;;;;;;12.20;6.68;;;16.60;99.90;;;;;;5047285;28;20048;-74
2022/11/02 05:19:18;;;;;;;10.18;6.68;;;16.60;99.90;;;;;;5062556;28;20053;-75
2022/11/02 05:21:45;;;;;;;10.30;6.95;;;16.60;99.90;;;;;;5067669;28;20106;-73
2022/11/02 05:24:13;;;;;;;12.13;7.07;;;16.60;99.90;;;;;;5033146;28;20481;-73
2022/11/02 05:26:41;;;;;;;11.20;7.20;;;16.60;99.90;;;;;;5048289;28;20052;-74
2022/11/02 05:29:09;;;;;;;10.27;6.15;;;16.60;99.90;;;;;;5014269;28;20376;-74
2022/11/02 05:31:37;;;;;;;13.05;7.43;;;16.60;99.90;;;;;;5048385;28;20045;-74
2022/11/02 05:34:04;;;;;;;16.05;8.15;;;16.60;99.90;;;;;;5033370;28;20106;-73
2022/11/02 05:36:32;;;;;;;13.65;9.90;;;16.60;99.90;;;;;;5034457;28;20048;-75
2022/11/02 05:38:59;;;;;;;14.18;9.48;;;16.60;99.90;;;;;;5052305;28;20084;-74
2022/11/02 05:41:27;;;;;;;18.85;10.80;;;16.60;99.90;;;;;;5050915;28;20068;-74
2022/11/02 05:43:57;;;;;;;19.77;11.07;;;16.60;99.90;;;;;;5051464;28;20045;-73
2022/11/02 05:46:27;;;;;;;20.15;10.75;;;16.60;99.90;;;;;;5050630;28;20079;-75
2022/11/02 05:48:55;;;;;;;15.95;9.85;;;16.60;99.90;;;;;;5050810;28;20049;-74
2022/11/02 05:51:22;;;;;;;18.83;10.60;;;16.60;99.90;;;;;;5050825;28;20114;-76
2022/11/02 05:53:50;;;;;;;20.45;11.35;;;16.70;99.90;;;;;;5051578;28;20099;-76
2022/11/02 05:56:18;;;;;;;19.20;12.10;;;16.70;99.90;;;;;;5050776;28;20043;-73
2022/11/02 05:58:48;;;;;;;21.33;11.27;;;16.70;99.90;;;;;;5065433;28;20091;-74
2022/11/02 06:01:16;;;;;;;19.83;11.20;;;16.80;99.90;;;;;;5071911;28;20074;-74
2022/11/02 06:03:43;;;;;;;22.45;10.80;;;16.80;99.90;;;;;;5054535;28;20463;-73
2022/11/02 06:06:12;;;;;;;20.15;11.65;;;16.80;99.90;;;;;;5070978;28;20045;-75
2022/11/02 06:08:40;;;;;;;23.08;12.18;;;16.90;99.90;;;;;;5072256;28;20040;-74
2022/11/02 06:11:11;;;;;;;37.90;15.32;;;16.90;99.90;;;;;;5072276;28;20079;-76
2022/11/02 06:13:40;;;;;;;21.98;12.77;;;16.90;99.90;;;;;;5070671;28;20102;-75
2022/11/02 06:16:09;;;;;;;22.95;12.82;;;17.00;99.90;;;;;;5071800;28;20075;-73
2022/11/02 06:18:37;;;;;;;23.77;13.05;;;17.00;99.90;;;;;;5037289;28;20071;-73
2022/11/02 06:21:05;;;;;;;28.00;15.68;;;17.00;99.90;;;;;;5070427;28;20051;-73
2022/11/02 06:23:34;;;;;;;24.58;13.57;;;17.10;99.90;;;;;;5067651;28;20040;-77
2022/11/02 06:26:02;;;;;;;21.77;14.20;;;17.10;99.90;;;;;;5069948;28;20047;-74
2022/11/02 06:28:30;;;;;;;28.08;15.18;;;17.20;99.90;;;;;;5053786;28;20106;-73
2022/11/02 06:30:57;;;;;;;27.25;13.48;;;17.20;99.90;;;;;;5036830;28;20064;-73
2022/11/02 06:33:25;;;;;;;24.42;14.70;;;17.30;99.90;;;;;;5070275;28;20131;-75
2022/11/02 06:35:54;;;;;;;27.33;17.05;;;17.30;99.90;;;;;;5071207;28;20040;-73
2022/11/02 06:38:22;;;;;;;30.52;17.00;;;17.30;99.90;;;;;;5053272;28;20134;-74
2022/11/02 06:40:58;;;;;;;33.40;20.40;;;17.40;99.90;;;;;;5069645;28;20056;-75
2022/11/02 06:43:25;;;;;;;34.22;19.83;;;17.40;99.90;;;;;;5069075;28;20071;-74
2022/11/02 06:45:55;;;;;;;34.78;19.63;;;17.50;99.90;;;;;;5069428;28;20174;-75
2022/11/02 06:48:23;;;;;;;31.02;18.90;;;17.50;99.90;;;;;;5069261;28;20044;-73
2022/11/02 06:50:52;;;;;;;35.78;20.65;;;17.60;99.90;;;;;;5036878;28;20044;-74
2022/11/02 06:53:20;;;;;;;34.50;19.23;;;17.60;99.90;;;;;;5061562;28;20076;-74
2022/11/02 06:55:54;;;;;;;34.75;20.73;;;17.70;99.90;;;;;;5069904;28;20048;-79
2022/11/02 06:58:23;;;;;;;35.45;20.58;;;17.70;99.90;;;;;;5078702;28;20063;-73
2022/11/02 07:00:57;;;;;;;28.42;19.63;;;17.80;99.90;;;;;;5048564;28;20507;-76
2022/11/02 07:03:26;;;;;;;37.70;20.13;;;17.80;99.90;;;;;;5041975;28;20063;-74
2022/11/02 07:05:53;;;;;;;32.67;19.10;;;17.90;99.90;;;;;;5079960;28;20489;-73
2022/11/02 07:08:22;;;;;;;30.70;19.17;;;17.90;99.90;;;;;;5045421;28;20048;-73
2022/11/02 07:10:51;;;;;;;33.83;18.17;;;18.00;99.90;;;;;;5080938;28;20123;-73
2022/11/02 07:13:18;;;;;;;27.77;18.65;;;18.00;99.90;;;;;;5067609;28;20057;-73
2022/11/02 07:15:46;;;;;;;28.38;18.92;;;18.10;99.90;;;;;;5056911;28;20148;-72
2022/11/02 07:18:14;;;;;;;32.25;19.65;;;18.10;99.90;;;;;;5069026;28;20066;-73
2022/11/02 07:20:41;;;;;;;30.70;19.58;;;18.20;99.90;;;;;;5051749;28;20124;-73
2022/11/02 07:23:09;;;;;;;35.25;19.88;;;18.20;99.90;;;;;;5068949;28;20049;-72
2022/11/02 07:25:38;;;;;;;36.20;19.10;;;18.30;99.90;;;;;;5073186;28;20048;-73
2022/11/02 07:28:06;;;;;;;32.90;19.65;;;18.30;99.90;;;;;;5077836;28;20035;-75
2022/11/02 07:30:34;;;;;;;30.52;18.00;;;18.40;99.90;;;;;;5072501;28;20101;-74
2022/11/02 07:33:02;;;;;;;33.25;21.13;;;18.40;99.90;;;;;;5089124;28;20055;-75
2022/11/02 07:35:29;;;;;;;37.28;18.20;;;18.50;99.90;;;;;;5088704;28;20137;-79
2022/11/02 07:38:01;;;;;;;31.45;19.10;;;18.60;99.90;;;;;;5088646;28;20055;-74
2022/11/02 07:40:32;;;;;;;32.70;18.15;;;18.70;99.90;;;;;;5090478;28;20062;-77
2022/11/02 07:43:00;;;;;;;30.27;19.13;;;18.80;99.90;;;;;;5089764;28;20040;-75
2022/11/02 07:45:34;;;;;;;30.07;18.43;;;18.90;99.90;;;;;;5071930;28;20098;-74
2022/11/02 07:48:02;;;;;;;29.58;18.05;;;18.90;99.90;;;;;;5089495;28;20282;-75
2022/11/02 07:50:30;;;;;;;28.05;19.10;;;19.00;99.90;;;;;;5072159;28;20354;-75
2022/11/02 07:52:58;;;;;;;32.97;18.98;;;19.10;99.90;;;;;;5060900;28;20044;-75
2022/11/02 07:55:27;;;;;;;32.78;20.02;;;19.10;99.90;;;;;;5067722;28;20081;-75
2022/11/02 07:58:13;;;;;;;29.95;17.85;;;19.20;99.90;;;;;;5051319;28;20046;-75
2022/11/02 08:00:42;;;;;;;28.85;19.05;;;19.30;99.90;;;;;;5067802;28;20505;-75
2022/11/02 08:03:10;;;;;;;29.15;18.75;;;19.40;99.90;;;;;;5068176;28;20075;-75
2022/11/02 08:05:40;;;;;;;30.58;17.10;;;19.50;99.90;;;;;;5063767;28;20122;-75
2022/11/02 08:08:14;;;;;;;28.55;17.25;;;19.60;99.90;;;;;;5047651;28;20056;-75
2022/11/02 08:10:42;;;;;;;24.95;15.55;;;19.90;99.90;;;;;;5049216;28;20424;-75
2022/11/02 08:13:14;;;;;;;29.85;16.58;;;20.20;99.90;;;;;;5064384;28;20052;-76
2022/11/02 08:15:41;;;;;;;27.30;15.35;;;20.50;99.90;;;;;;5047698;28;20434;-75
2022/11/02 08:18:14;;;;;;;21.23;13.77;;;20.70;99.90;;;;;;5047273;28;20075;-76
2022/11/02 08:20:42;;;;;;;25.00;16.02;;;21.00;99.90;;;;;;5064499;28;20052;-74
2022/11/02 08:23:10;;;;;;;23.65;16.08;;;21.30;99.90;;;;;;5064707;28;20033;-77
2022/11/02 08:25:38;;;;;;;22.40;15.48;;;21.70;99.90;;;;;;5049050;28;20090;-77
2022/11/02 08:28:10;;;;;;;22.35;13.90;;;22.10;99.90;;;;;;5048511;28;20075;-75
2022/11/02 08:30:38;;;;;;;21.10;15.38;;;22.50;99.90;;;;;;5063912;28;20056;-75
2022/11/02 08:33:10;;;;;;;25.45;12.95;;;22.90;99.90;;;;;;5063986;28;20055;-76
2022/11/02 08:35:38;;;;;;;23.10;12.52;;;23.20;99.90;;;;;;5047960;28;20135;-75
2022/11/02 08:38:07;;;;;;;21.92;11.07;;;23.30;99.90;;;;;;5047492;28;20053;-72
2022/11/02 08:40:35;;;;;;;19.33;11.10;;;23.40;99.90;;;;;;5030898;28;20052;-71
2022/11/02 08:43:09;;;;;;;20.13;12.57;;;23.60;99.90;;;;;;5064401;28;20089;-72
2022/11/02 08:45:39;;;;;;;18.73;11.90;;;23.80;99.90;;;;;;5064577;28;20147;-72
2022/11/02 08:48:26;;;;;;;19.70;12.13;;;23.90;99.90;;;;;;5030938;28;20051;-72
2022/11/02 08:50:55;;;;;;;24.63;11.98;;;24.10;99.90;;;;;;5048497;28;20087;-72
2022/11/02 08:53:22;;;;;;;18.63;11.48;;;24.20;99.90;;;;;;5063487;28;20052;-74
2022/11/02 08:55:50;;;;;;;19.40;10.55;;;24.40;99.90;;;;;;5065182;28;20040;-73
2022/11/02 08:58:18;;;;;;;18.70;10.70;;;24.50;99.90;;;;;;5050710;28;20063;-73
2022/11/02 09:00:45;;;;;;;16.02;10.27;;;24.60;99.90;;;;;;5050616;28;20040;-72
2022/11/02 09:03:14;;;;;;;15.52;8.23;;;24.70;99.90;;;;;;5068862;28;20765;-73
2022/11/02 09:05:44;;;;;;;12.80;8.73;;;24.80;99.90;;;;;;5067005;28;20071;-72
2022/11/02 09:08:19;;;;;;;11.52;7.65;;;24.80;99.90;;;;;;5032890;28;20121;-73
2022/11/02 09:10:50;;;;;;;10.30;7.05;;;24.90;99.90;;;;;;5051044;28;20048;-72
2022/11/02 09:13:23;;;;;;;13.20;8.02;;;25.10;99.90;;;;;;5067737;28;20393;-72
2022/11/02 09:15:54;;;;;;;10.98;6.88;;;25.10;99.90;;;;;;5033514;28;20114;-72
2022/11/02 09:18:22;;;;;;;11.98;8.02;;;25.20;99.90;;;;;;5067170;28;20049;-72
2022/11/02 09:20:50;;;;;;;11.73;7.57;;;25.20;99.90;;;;;;5067013;28;20041;-72
2022/11/02 09:23:19;;;;;;;14.30;7.07;;;25.40;99.90;;;;;;5034282;28;20097;-72
2022/11/02 09:25:48;;;;;;;16.95;8.10;;;25.50;99.90;;;;;;5050713;28;20132;-72
2022/11/02 09:28:16;;;;;;;12.40;7.15;;;25.60;99.90;;;;;;5049846;28;20534;-73
2022/11/02 09:30:43;;;;;;;11.35;6.80;;;25.70;99.90;;;;;;5066884;28;20044;-72
2022/11/02 09:33:12;;;;;;;15.05;6.68;;;25.90;99.90;;;;;;5067245;28;20535;-72
2022/11/02 09:35:45;;;;;;;9.07;6.05;;;25.90;99.90;;;;;;5067726;28;20147;-72
2022/11/02 09:38:13;;;;;;;12.55;7.65;;;26.00;99.90;;;;;;5067018;28;20076;-73
2022/11/02 09:41:15;;;;;;;12.40;6.47;;;26.00;99.90;;;;;;5033684;28;20487;-73
2022/11/02 09:43:48;;;;;;;11.10;7.32;;;26.00;99.90;;;;;;5018261;28;20062;-72
2022/11/02 09:46:45;;;;;;;11.20;7.03;;;26.00;99.90;;;;;;5062067;28;20399;-72
2022/11/02 09:49:19;;;;;;;12.73;7.63;;;26.20;99.90;;;;;;5018024;28;20449;-72
2022/11/02 09:51:52;;;;;;;14.52;8.52;;;26.10;99.90;;;;;;5047084;28;20060;-73
2022/11/02 09:54:33;;;;;;;14.13;7.18;;;26.10;99.90;;;;;;5030314;28;20049;-72
2022/11/02 09:57:07;;;;;;;13.50;7.43;;;26.10;99.90;;;;;;5029596;28;20449;-72
2022/11/02 09:59:35;;;;;;;15.13;7.40;;;26.20;99.90;;;;;;5057332;28;20033;-72
2022/11/02 10:02:21;;;;;;;14.57;7.57;;;26.30;99.90;;;;;;5057802;28;20396;-73
2022/11/02 10:05:23;;;;;;;11.68;6.88;;;26.30;99.90;;;;;;5046462;28;20102;-73
2022/11/02 10:07:53;;;;;;;11.10;5.75;;;26.30;99.90;;;;;;5065380;28;20090;-74
2022/11/02 10:10:39;;;;;;;9.77;6.78;;;26.30;99.90;;;;;;5066853;28;20140;-72
2022/11/02 10:13:15;;;;;;;12.50;6.25;;;26.30;99.90;;;;;;5067382;28;20040;-72
2022/11/02 10:15:46;;;;;;;8.73;5.93;;;26.20;99.90;;;;;;5066936;28;20053;-73
2022/11/02 10:18:25;;;;;;;12.20;6.70;;;26.00;99.90;;;;;;5034413;28;20527;-72
2022/11/02 10:20:58;;;;;;;11.02;6.82;;;26.00;99.90;;;;;;5036255;28;20064;-73
2022/11/02 10:23:31;;;;;;;10.98;6.35;;;26.00;99.90;;;;;;5036973;28;20055;-71
2022/11/02 10:26:01;;;;;;;11.07;6.60;;;26.00;99.90;;;;;;5070117;28;20040;-72
2022/11/02 10:28:35;;;;;;;11.38;6.38;;;26.10;99.90;;;;;;5070054;28;20115;-72
2022/11/02 10:31:03;;;;;;;10.73;7.28;;;26.20;99.90;;;;;;5053702;28;20064;-72
2022/11/02 10:33:30;;;;;;;10.40;6.88;;;26.20;99.90;;;;;;5036957;28;20506;-73
2022/11/02 10:36:26;;;;;;;10.68;6.15;;;26.30;99.90;;;;;;5069983;28;20055;-72
2022/11/02 10:39:18;;;;;;;15.60;6.45;;;26.30;99.90;;;;;;5068646;28;20044;-72
2022/11/02 10:42:11;;;;;;;12.05;6.38;;;26.40;99.90;;;;;;5069297;28;20043;-72
2022/11/02 10:45:16;;;;;;;12.13;6.28;;;26.40;99.90;;;;;;5063389;28;20058;-73
2022/11/02 10:47:56;;;;;;;13.93;6.47;;;26.50;99.90;;;;;;5069322;28;20090;-73
2022/11/02 10:50:35;;;;;;;11.38;6.50;;;26.60;99.90;;;;;;5069113;28;20098;-72
2022/11/02 10:53:10;;;;;;;14.60;7.93;;;26.60;99.90;;;;;;5069739;28;20056;-72
2022/11/02 10:56:19;;;;;;;11.48;6.70;;;26.60;99.90;;;;;;5069280;28;20101;-72
2022/11/02 10:59:09;;;;;;;13.32;6.63;;;26.50;99.90;;;;;;5066871;28;20067;-72
2022/11/02 11:01:43;;;;;;;13.45;5.40;;;26.50;99.90;;;;;;5036510;28;20052;-72
2022/11/02 11:04:24;;;;;;;9.75;6.07;;;26.50;99.90;;;;;;5069325;28;20049;-73
2022/11/02 11:06:53;;;;;;;9.25;5.18;;;26.30;99.90;;;;;;5052517;28;20052;-73
2022/11/02 11:09:29;;;;;;;12.02;6.80;;;26.20;99.90;;;;;;5068908;28;20121;-72
2022/11/02 11:12:19;;;;;;;9.05;6.05;;;26.20;99.90;;;;;;5052039;28;20044;-72
2022/11/02 11:14:57;;;;;;;12.15;6.22;;;26.20;99.90;;;;;;5069494;28;20435;-73
2022/11/02 11:17:45;;;;;;;9.27;5.70;;;26.20;99.90;;;;;;5070320;28;20402;-73
2022/11/02 11:20:38;;;;;;;10.63;6.93;;;26.20;99.90;;;;;;5068607;28;20057;-73
2022/11/02 11:23:22;;;;;;;9.07;6.57;;;26.20;99.90;;;;;;5052975;28;20124;-73
2022/11/02 11:26:01;;;;;;;11.35;6.22;;;26.20;99.90;;;;;;5068950;28;20072;-72
2022/11/02 11:28:41;;;;;;;10.40;6.47;;;26.10;99.90;;;;;;5068639;28;20053;-73
2022/11/02 11:31:17;;;;;;;11.35;6.45;;;26.00;99.90;;;;;;5051959;28;20189;-72
2022/11/02 11:34:02;;;;;;;11.93;6.68;;;26.00;99.90;;;;;;5052585;28;20045;-72
2022/11/02 11:36:34;;;;;;;8.48;5.15;;;26.00;99.90;;;;;;5051679;28;20057;-73
2022/11/02 11:39:06;;;;;;;11.20;6.63;;;26.00;99.90;;;;;;5035133;28;20055;-72
2022/11/02 11:41:40;;;;;;;10.40;6.07;;;26.00;99.90;;;;;;5061254;28;20104;-73
2022/11/02 11:44:15;;;;;;;14.38;6.32;;;25.80;99.90;;;;;;5048354;28;20056;-73
2022/11/02 11:46:51;;;;;;;12.68;7.30;;;25.60;99.90;;;;;;5032350;28;20137;-72
2022/11/02 11:49:28;;;;;;;16.10;7.33;;;25.40;99.90;;;;;;5048441;28;20041;-73
2022/11/02 11:52:03;;;;;;;12.57;6.18;;;25.30;99.90;;;;;;5047769;28;20292;-72
2022/11/02 11:54:32;;;;;;;13.13;6.10;;;25.00;99.90;;;;;;5049636;28;20040;-72
2022/11/02 11:57:22;;;;;;;11.88;6.65;;;25.00;99.90;;;;;;5049647;28;20045;-73
2022/11/02 11:59:57;;;;;;;10.52;6.28;;;25.10;99.90;;;;;;5048140;28;20107;-72
2022/11/02 12:02:29;;;;;;;11.10;6.53;;;25.20;99.90;;;;;;5032012;28;20402;-72
2022/11/02 12:05:15;;;;;;;10.60;6.10;;;25.20;99.90;;;;;;5048293;28;20044;-72
2022/11/02 12:08:06;;;;;;;13.13;6.63;;;25.10;99.90;;;;;;5047762;28;20488;-72
2022/11/02 12:10:52;;;;;;;12.30;6.55;;;24.90;99.90;;;;;;5031727;28;20472;-73
2022/11/02 12:14:04;;;;;;;11.33;6.23;;;24.80;99.90;;;;;;5048157;28;20045;-73
2022/11/02 12:16:55;;;;;;;13.23;5.90;;;24.80;99.90;;;;;;5004047;28;20279;-72
2022/11/02 12:19:47;;;;;;;11.20;5.05;;;25.00;99.90;;;;;;5039138;28;20128;-72
2022/11/02 12:22:33;;;;;;;10.60;5.63;;;25.00;99.90;;;;;;5048259;28;20057;-71
2022/11/02 12:25:03;;;;;;;7.70;4.80;;;25.00;99.90;;;;;;5031708;28;20061;-73
2022/11/02 12:27:34;;;;;;;7.40;5.45;;;24.80;99.90;;;;;;5015100;28;20079;-75
2022/11/02 12:30:18;;;;;;;7.78;4.38;;;24.70;99.90;;;;;;5059207;28;20041;-71
2022/11/02 12:33:13;;;;;;;6.68;4.20;;;24.70;99.90;;;;;;5069170;28;20063;-70
2022/11/02 12:36:19;;;;;;;9.77;5.07;;;24.60;99.90;;;;;;5051339;28;20057;-71
2022/11/02 12:39:07;;;;;;;9.73;4.75;;;24.50;99.90;;;;;;5050821;28;20514;-70
2022/11/02 12:41:41;;;;;;;10.13;4.55;;;24.40;99.90;;;;;;5029577;28;20506;-71
2022/11/02 12:44:28;;;;;;;8.25;4.30;;;24.40;99.90;;;;;;5063403;28;20052;-71
2022/11/02 12:46:58;;;;;;;5.82;3.75;;;24.30;99.90;;;;;;5041520;28;20052;-71
2022/11/02 12:49:29;;;;;;;6.40;4.35;;;24.30;99.90;;;;;;5056218;28;20044;-71
2022/11/02 12:52:13;;;;;;;10.18;5.10;;;24.20;99.90;;;;;;5057016;28;20037;-71
2022/11/02 12:54:53;;;;;;;9.10;4.60;;;24.20;99.90;;;;;;5071277;28;20072;-70
2022/11/02 12:57:23;;;;;;;8.98;5.32;;;23.80;99.90;;;;;;5040248;28;20056;-70
2022/11/02 12:59:56;;;;;;;7.88;4.07;;;23.70;99.90;;;;;;5048550;28;20140;-71
2022/11/02 13:02:30;;;;;;;8.52;3.50;;;23.70;99.90;;;;;;5043960;28;20707;-72
2022/11/02 13:05:16;;;;;;;7.72;4.32;;;23.70;99.90;;;;;;5056891;28;20040;-72
2022/11/02 13:07:49;;;;;;;10.07;4.57;;;23.60;99.90;;;;;;5051792;28;20049;-72
2022/11/02 13:10:19;;;;;;;7.70;4.25;;;23.70;99.90;;;;;;5048144;28;20406;-72
2022/11/02 13:12:55;;;;;;;7.97;5.03;;;23.80;99.90;;;;;;5051789;28;20044;-72
2022/11/02 13:15:24;;;;;;;13.82;5.45;;;23.80;99.90;;;;;;5047018;28;20065;-72
2022/11/02 13:17:55;;;;;;;7.85;4.60;;;23.80;99.90;;;;;;5050738;28;20052;-72
2022/11/02 13:20:25;;;;;;;8.70;5.15;;;23.60;99.90;;;;;;5044941;28;20106;-71